createdAt,value
2018-08-18T00:00:02.423Z,988.68
2018-08-18T00:01:02.392Z,988.73
2018-08-18T00:02:02.357Z,988.72
2018-08-18T00:03:02.320Z,988.73
2018-08-18T00:04:02.289Z,988.69
2018-08-18T00:05:02.248Z,988.70
2018-08-18T00:06:02.216Z,988.74
2018-08-18T00:07:02.189Z,988.74
2018-08-18T00:08:02.150Z,988.72
2018-08-18T00:09:02.112Z,988.71
2018-08-18T00:10:02.079Z,988.76
2018-08-18T00:11:02.052Z,988.75
2018-08-18T00:12:02.008Z,988.77
2018-08-18T00:13:01.985Z,988.77
2018-08-18T00:14:01.942Z,988.78
2018-08-18T00:15:01.907Z,988.80
2018-08-18T00:16:01.874Z,988.81
2018-08-18T00:17:01.842Z,988.78
2018-08-18T00:18:01.803Z,988.78
2018-08-18T00:19:01.769Z,988.76
2018-08-18T00:20:01.732Z,988.76
2018-08-18T00:21:01.703Z,988.75
2018-08-18T00:22:01.668Z,988.73
2018-08-18T00:23:01.633Z,988.75
2018-08-18T00:24:01.594Z,988.73
2018-08-18T00:25:01.565Z,988.70
2018-08-18T00:26:01.528Z,988.72
2018-08-18T00:27:01.499Z,988.69
2018-08-18T00:28:01.463Z,988.69
2018-08-18T00:29:01.423Z,988.67
2018-08-18T00:30:01.391Z,988.70
2018-08-18T00:31:01.358Z,988.70
2018-08-18T00:32:01.318Z,988.73
2018-08-18T00:33:01.292Z,988.70
2018-08-18T00:34:01.253Z,988.74
2018-08-18T00:35:01.222Z,988.73
2018-08-18T00:36:01.186Z,988.77
2018-08-18T00:37:01.148Z,988.72
2018-08-18T00:38:01.112Z,988.71
2018-08-18T00:39:01.082Z,988.71
2018-08-18T00:40:01.049Z,988.71
2018-08-18T00:41:01.013Z,988.76
2018-08-18T00:42:00.974Z,988.72
2018-08-18T00:43:00.940Z,988.75
2018-08-18T00:44:00.902Z,988.76
2018-08-18T00:45:00.878Z,988.77
2018-08-18T00:46:00.836Z,988.75
2018-08-18T00:47:00.805Z,988.72
2018-08-18T00:48:00.770Z,988.74
2018-08-18T00:49:00.731Z,988.73
2018-08-18T00:50:00.696Z,988.74
2018-08-18T00:51:00.666Z,988.74
2018-08-18T00:52:00.627Z,988.71
2018-08-18T00:53:00.598Z,988.71
2018-08-18T00:54:00.564Z,988.74
2018-08-18T00:55:00.526Z,988.73
2018-08-18T00:56:00.497Z,988.69
2018-08-18T00:57:00.459Z,988.77
2018-08-18T00:58:00.426Z,988.75
2018-08-18T00:59:00.391Z,988.76
2018-08-18T01:00:00.355Z,988.74
2018-08-18T01:01:00.315Z,988.76
2018-08-18T01:02:00.282Z,988.76
2018-08-18T01:03:00.247Z,988.76
2018-08-18T01:04:00.210Z,988.80
2018-08-18T01:05:00.182Z,988.77
2018-08-18T01:06:00.147Z,988.79
2018-08-18T01:07:00.113Z,988.80
2018-08-18T01:08:00.081Z,988.80
2018-08-18T01:09:00.039Z,988.78
2018-08-18T01:10:00.004Z,988.78
2018-08-18T01:10:59.991Z,988.80
2018-08-18T01:12:00.005Z,988.80
2018-08-18T01:12:59.992Z,988.79
2018-08-18T01:13:59.896Z,988.82
2018-08-18T01:14:59.884Z,988.82
2018-08-18T01:15:59.797Z,988.85
2018-08-18T01:16:59.768Z,988.83
2018-08-18T01:17:59.731Z,988.81
2018-08-18T01:18:59.696Z,988.82
2018-08-18T01:19:59.665Z,988.84
2018-08-18T01:20:59.627Z,988.85
2018-08-18T01:21:59.591Z,988.85
2018-08-18T01:22:59.553Z,988.89
2018-08-18T01:23:59.519Z,988.87
2018-08-18T01:24:59.491Z,988.85
2018-08-18T01:25:59.451Z,988.85
2018-08-18T01:26:59.468Z,988.87
2018-08-18T01:27:59.378Z,988.91
2018-08-18T01:28:59.351Z,988.91
2018-08-18T01:29:59.312Z,988.93
2018-08-18T01:30:59.278Z,988.92
2018-08-18T01:31:59.250Z,988.97
2018-08-18T01:32:59.209Z,989.00
2018-08-18T01:33:59.175Z,988.97
2018-08-18T01:34:59.136Z,988.96
2018-08-18T01:35:59.102Z,988.97
2018-08-18T01:36:59.071Z,988.98
2018-08-18T01:37:59.033Z,988.98
2018-08-18T01:38:59.000Z,989.02
2018-08-18T01:39:58.966Z,989.05
2018-08-18T01:40:58.925Z,989.03
2018-08-18T01:41:58.892Z,989.02
2018-08-18T01:42:58.861Z,989.00
2018-08-18T01:43:58.827Z,988.98
2018-08-18T01:44:58.787Z,989.01
2018-08-18T01:45:58.760Z,989.05
2018-08-18T01:46:58.718Z,988.99
2018-08-18T01:47:58.681Z,989.03
2018-08-18T01:48:58.653Z,989.02
2018-08-18T01:49:58.614Z,989.02
2018-08-18T01:50:58.587Z,989.04
2018-08-18T01:51:58.548Z,989.02
2018-08-18T01:52:58.509Z,988.99
2018-08-18T01:53:58.474Z,988.97
2018-08-18T01:54:58.438Z,988.98
2018-08-18T01:55:58.404Z,988.98
2018-08-18T01:56:58.374Z,988.98
2018-08-18T01:57:58.338Z,988.97
2018-08-18T01:58:58.301Z,988.98
2018-08-18T01:59:58.263Z,988.96
2018-08-18T02:00:58.239Z,988.92
2018-08-18T02:01:58.198Z,988.94
2018-08-18T02:02:58.162Z,988.95
2018-08-18T02:03:58.130Z,988.97
2018-08-18T02:04:58.093Z,988.95
2018-08-18T02:05:58.055Z,988.93
2018-08-18T02:06:58.022Z,988.94
2018-08-18T02:07:57.987Z,988.97
2018-08-18T02:08:57.955Z,988.95
2018-08-18T02:09:57.919Z,988.96
2018-08-18T02:10:57.884Z,988.98
2018-08-18T02:11:57.851Z,988.99
2018-08-18T02:12:57.811Z,989.00
2018-08-18T02:13:57.778Z,988.97
2018-08-18T02:14:57.743Z,988.99
2018-08-18T02:15:57.710Z,988.96
2018-08-18T02:16:57.671Z,988.98
2018-08-18T02:17:57.635Z,988.95
2018-08-18T02:18:57.616Z,988.95
2018-08-18T02:19:57.570Z,988.96
2018-08-18T02:20:57.537Z,988.96
2018-08-18T02:21:57.507Z,988.99
2018-08-18T02:22:57.466Z,988.95
2018-08-18T02:23:57.432Z,988.95
2018-08-18T02:24:57.391Z,988.94
2018-08-18T02:25:57.359Z,988.93
2018-08-18T02:26:57.323Z,988.94
2018-08-18T02:27:57.287Z,988.94
2018-08-18T02:28:57.257Z,988.95
2018-08-18T02:29:57.224Z,988.94
2018-08-18T02:30:57.184Z,988.94
2018-08-18T02:31:57.148Z,988.94
2018-08-18T02:32:57.121Z,988.94
2018-08-18T02:33:57.083Z,988.94
2018-08-18T02:34:57.052Z,988.93
2018-08-18T02:35:57.013Z,988.92
2018-08-18T02:36:56.974Z,988.92
2018-08-18T02:37:56.939Z,988.91
2018-08-18T02:38:56.904Z,988.89
2018-08-18T02:39:56.882Z,988.89
2018-08-18T02:40:56.838Z,988.91
2018-08-18T02:41:56.800Z,988.93
2018-08-18T02:42:56.787Z,988.91
2018-08-18T02:43:56.734Z,988.93
2018-08-18T02:44:56.695Z,988.95
2018-08-18T02:45:56.660Z,988.92
2018-08-18T02:46:56.627Z,988.93
2018-08-18T02:47:56.594Z,988.93
2018-08-18T02:48:56.553Z,988.93
2018-08-18T02:49:56.519Z,988.97
2018-08-18T02:50:56.484Z,988.95
2018-08-18T02:51:56.447Z,988.93
2018-08-18T02:52:56.419Z,988.94
2018-08-18T02:53:56.381Z,988.94
2018-08-18T02:54:56.348Z,988.89
2018-08-18T02:55:56.314Z,988.91
2018-08-18T02:56:56.279Z,988.91
2018-08-18T02:57:56.238Z,988.93
2018-08-18T02:58:56.208Z,988.90
2018-08-18T02:59:56.168Z,988.90
2018-08-18T03:00:56.139Z,988.89
2018-08-18T03:01:56.101Z,988.89
2018-08-18T03:02:56.066Z,988.91
2018-08-18T03:03:56.031Z,988.91
2018-08-18T03:04:55.998Z,988.91
2018-08-18T03:05:55.961Z,988.88
2018-08-18T03:06:55.931Z,988.90
2018-08-18T03:07:55.956Z,988.93
2018-08-18T03:08:55.852Z,988.90
2018-08-18T03:09:55.818Z,988.88
2018-08-18T03:10:55.780Z,988.87
2018-08-18T03:11:55.749Z,988.88
2018-08-18T03:12:55.716Z,988.87
2018-08-18T03:13:55.681Z,988.87
2018-08-18T03:14:55.645Z,988.85
2018-08-18T03:15:55.609Z,988.86
2018-08-18T03:16:55.574Z,988.84
2018-08-18T03:17:55.533Z,988.85
2018-08-18T03:18:55.504Z,988.86
2018-08-18T03:19:55.468Z,988.87
2018-08-18T03:20:55.430Z,988.88
2018-08-18T03:21:55.391Z,988.90
2018-08-18T03:22:55.356Z,988.92
2018-08-18T03:23:55.322Z,988.93
2018-08-18T03:24:55.290Z,988.91
2018-08-18T03:25:55.258Z,988.97
2018-08-18T03:26:55.223Z,988.93
2018-08-18T03:27:55.183Z,988.97
2018-08-18T03:28:55.181Z,989.01
2018-08-18T03:29:55.108Z,989.00
2018-08-18T03:30:55.075Z,988.99
2018-08-18T03:31:55.046Z,989.02
2018-08-18T03:32:55.007Z,989.03
2018-08-18T03:33:54.973Z,989.06
2018-08-18T03:34:54.933Z,989.04
2018-08-18T03:35:54.900Z,989.03
2018-08-18T03:36:54.869Z,989.01
2018-08-18T03:37:54.830Z,989.00
2018-08-18T03:38:54.795Z,989.04
2018-08-18T03:39:54.758Z,989.00
2018-08-18T03:40:54.723Z,989.02
2018-08-18T03:41:54.683Z,988.96
2018-08-18T03:42:54.651Z,989.03
2018-08-18T03:43:54.614Z,989.02
2018-08-18T03:44:54.584Z,989.01
2018-08-18T03:45:54.549Z,989.00
2018-08-18T03:46:54.533Z,989.01
2018-08-18T03:47:54.477Z,988.99
2018-08-18T03:48:54.437Z,989.04
2018-08-18T03:49:54.399Z,989.03
2018-08-18T03:50:54.370Z,989.04
2018-08-18T03:51:54.336Z,989.06
2018-08-18T03:52:54.296Z,989.06
2018-08-18T03:53:54.261Z,989.04
2018-08-18T04:07:00.443Z,989.05
2018-08-18T04:08:00.373Z,989.09
2018-08-18T04:09:00.331Z,989.09
2018-08-18T04:10:00.289Z,989.08
2018-08-18T04:11:00.258Z,989.10
2018-08-18T04:12:00.211Z,989.11
2018-08-18T04:13:00.173Z,989.08
2018-08-18T04:14:00.138Z,989.11
2018-08-18T04:15:00.103Z,989.04
2018-08-18T04:16:00.066Z,989.07
2018-08-18T04:17:00.026Z,989.08
2018-08-18T04:17:59.988Z,989.06
2018-08-18T04:18:59.999Z,989.08
2018-08-18T04:19:59.916Z,989.09
2018-08-18T04:20:59.879Z,989.06
2018-08-18T04:21:59.843Z,989.06
2018-08-18T04:22:59.800Z,989.07
2018-08-18T04:23:59.764Z,989.08
2018-08-18T04:24:59.737Z,989.08
2018-08-18T04:25:59.696Z,989.07
2018-08-18T04:26:59.662Z,989.08
2018-08-18T04:27:59.627Z,989.11
2018-08-18T04:28:59.592Z,989.09
2018-08-18T04:29:59.549Z,989.09
2018-08-18T04:30:59.513Z,989.16
2018-08-18T04:31:59.474Z,989.10
2018-08-18T04:32:59.441Z,989.15
2018-08-18T04:33:59.406Z,989.11
2018-08-18T04:34:59.373Z,989.11
2018-08-18T04:35:59.333Z,989.16
2018-08-18T04:36:59.303Z,989.15
2018-08-18T04:37:59.262Z,989.16
2018-08-18T04:38:59.229Z,989.10
2018-08-18T04:39:59.199Z,989.18
2018-08-18T04:40:59.158Z,989.17
2018-08-18T04:41:59.124Z,989.20
2018-08-18T04:42:59.079Z,989.19
2018-08-18T04:43:59.069Z,989.24
2018-08-18T04:44:59.013Z,989.19
2018-08-18T04:45:58.976Z,989.21
2018-08-18T04:46:58.944Z,989.23
2018-08-18T04:47:58.949Z,989.17
2018-08-18T04:48:58.871Z,989.17
2018-08-18T04:49:58.859Z,989.15
2018-08-18T04:50:58.793Z,989.17
2018-08-18T04:51:58.764Z,989.14
2018-08-18T04:52:58.728Z,989.16
2018-08-18T04:53:58.690Z,989.16
2018-08-18T04:54:58.651Z,989.14
2018-08-18T04:55:58.618Z,989.16
2018-08-18T04:56:58.633Z,989.15
2018-08-18T04:57:58.547Z,989.18
2018-08-18T04:58:58.513Z,989.22
2018-08-18T04:59:58.478Z,989.24
2018-08-18T05:00:58.441Z,989.24
2018-08-18T05:01:58.402Z,989.24
2018-08-18T05:02:58.366Z,989.21
2018-08-18T05:03:58.333Z,989.24
2018-08-18T05:04:58.338Z,989.24
2018-08-18T05:05:58.260Z,989.26
2018-08-18T05:06:58.231Z,989.26
2018-08-18T05:07:58.190Z,989.25
2018-08-18T05:08:58.233Z,989.25
2018-08-18T05:09:58.121Z,989.21
2018-08-18T05:10:58.090Z,989.24
2018-08-18T05:11:58.052Z,989.26
2018-08-18T05:12:58.013Z,989.26
2018-08-18T05:13:57.975Z,989.22
2018-08-18T05:14:57.936Z,989.26
2018-08-18T05:15:57.909Z,989.27
2018-08-18T05:16:57.868Z,989.27
2018-08-18T05:17:57.842Z,989.33
2018-08-18T05:18:57.874Z,989.32
2018-08-18T05:19:57.766Z,989.36
2018-08-18T05:20:57.728Z,989.35
2018-08-18T05:21:57.689Z,989.38
2018-08-18T05:22:57.653Z,989.34
2018-08-18T05:23:57.623Z,989.36
2018-08-18T05:24:57.585Z,989.38
2018-08-18T05:25:57.554Z,989.39
2018-08-18T05:26:57.513Z,989.41
2018-08-18T05:27:57.482Z,989.37
2018-08-18T05:28:57.446Z,989.36
2018-08-18T05:29:57.408Z,989.35
2018-08-18T05:30:57.375Z,989.35
2018-08-18T05:31:57.339Z,989.37
2018-08-18T05:32:57.303Z,989.37
2018-08-18T05:33:57.264Z,989.35
2018-08-18T05:34:57.227Z,989.37
2018-08-18T05:35:57.194Z,989.37
2018-08-18T05:36:57.158Z,989.38
2018-08-18T05:37:57.127Z,989.40
2018-08-18T05:38:57.093Z,989.39
2018-08-18T05:39:57.052Z,989.42
2018-08-18T05:40:57.018Z,989.41
2018-08-18T05:41:56.982Z,989.37
2018-08-18T05:42:56.951Z,989.39
2018-08-18T05:43:56.916Z,989.40
2018-08-18T05:44:56.880Z,989.39
2018-08-18T05:45:56.842Z,989.41
2018-08-18T05:46:56.804Z,989.40
2018-08-18T05:47:56.772Z,989.41
2018-08-18T05:48:56.742Z,989.39
2018-08-18T05:49:56.702Z,989.41
2018-08-18T05:50:56.668Z,989.43
2018-08-18T05:51:56.635Z,989.42
2018-08-18T05:52:56.600Z,989.44
2018-08-18T05:53:56.560Z,989.42
2018-08-18T05:54:56.525Z,989.42
2018-08-18T05:55:56.494Z,989.44
2018-08-18T05:56:56.464Z,989.38
2018-08-18T05:57:56.420Z,989.37
2018-08-18T05:58:56.386Z,989.47
2018-08-18T05:59:56.353Z,989.46
2018-08-18T06:00:56.315Z,989.49
2018-08-18T06:01:56.284Z,989.44
2018-08-18T06:02:56.248Z,989.48
2018-08-18T06:03:56.213Z,989.45
2018-08-18T06:04:56.180Z,989.48
2018-08-18T06:05:56.141Z,989.48
2018-08-18T06:06:56.109Z,989.50
2018-08-18T06:07:56.073Z,989.50
2018-08-18T06:08:56.035Z,989.50
2018-08-18T06:09:56.009Z,989.52
2018-08-18T06:10:55.975Z,989.54
2018-08-18T06:11:55.986Z,989.58
2018-08-18T06:12:55.896Z,989.61
2018-08-18T06:13:55.869Z,989.65
2018-08-18T06:14:55.836Z,989.64
2018-08-18T06:15:55.798Z,989.64
2018-08-18T06:16:55.765Z,989.64
2018-08-18T06:17:55.723Z,989.69
2018-08-18T06:18:55.693Z,989.65
2018-08-18T06:19:55.657Z,989.65
2018-08-18T06:20:55.620Z,989.65
2018-08-18T06:21:55.594Z,989.68
2018-08-18T06:22:55.554Z,989.68
2018-08-18T06:23:55.521Z,989.70
2018-08-18T06:24:55.490Z,989.72
2018-08-18T06:25:55.452Z,989.69
2018-08-18T06:26:55.419Z,989.71
2018-08-18T06:27:55.384Z,989.69
2018-08-18T06:28:55.359Z,989.69
2018-08-18T06:29:55.317Z,989.75
2018-08-18T06:30:55.279Z,989.74
2018-08-18T06:31:55.244Z,989.76
2018-08-18T06:32:55.208Z,989.77
2018-08-18T06:33:55.179Z,989.76
2018-08-18T06:34:55.186Z,989.77
2018-08-18T06:35:55.110Z,989.75
2018-08-18T06:36:55.080Z,989.79
2018-08-18T06:37:55.039Z,989.78
2018-08-18T06:38:55.007Z,989.78
2018-08-18T06:39:54.973Z,989.80
2018-08-18T06:40:54.964Z,989.81
2018-08-18T06:41:54.947Z,989.79
2018-08-18T06:42:54.873Z,989.83
2018-08-18T06:43:54.838Z,989.85
2018-08-18T06:44:54.803Z,989.87
2018-08-18T06:45:54.773Z,989.84
2018-08-18T06:46:54.738Z,989.85
2018-08-18T06:47:54.704Z,989.82
2018-08-18T06:48:54.679Z,989.80
2018-08-18T06:49:54.631Z,989.80
2018-08-18T06:50:54.608Z,989.80
2018-08-18T06:51:54.566Z,989.78
2018-08-18T06:52:54.532Z,989.82
2018-08-18T06:53:54.504Z,989.78
2018-08-18T06:54:54.569Z,989.79
2018-08-18T06:55:54.434Z,989.80
2018-08-18T06:56:54.405Z,989.79
2018-08-18T06:57:54.361Z,989.79
2018-08-18T06:58:54.330Z,989.83
2018-08-18T06:59:54.300Z,989.84
2018-08-18T07:00:54.268Z,989.84
2018-08-18T07:01:54.233Z,989.83
2018-08-18T07:02:54.196Z,989.83
2018-08-18T07:03:54.165Z,989.85
2018-08-18T07:04:54.129Z,989.88
2018-08-18T07:05:54.114Z,989.84
2018-08-18T07:06:54.068Z,989.87
2018-08-18T07:07:54.082Z,989.88
2018-08-18T07:08:54.002Z,989.83
2018-08-18T07:09:53.964Z,989.86
2018-08-18T07:10:53.931Z,989.86
2018-08-18T07:11:53.898Z,989.86
2018-08-18T07:12:53.862Z,989.89
2018-08-18T07:13:54.558Z,989.87
2018-08-18T07:14:53.800Z,989.86
2018-08-18T07:15:53.765Z,989.84
2018-08-18T07:16:53.737Z,989.85
2018-08-18T07:17:53.702Z,989.86
2018-08-18T07:18:53.668Z,989.86
2018-08-18T07:19:53.635Z,989.88
2018-08-18T07:20:53.604Z,989.88
2018-08-18T07:21:53.568Z,989.90
2018-08-18T07:22:53.535Z,989.87
2018-08-18T07:23:53.502Z,989.90
2018-08-18T07:24:53.472Z,989.91
2018-08-18T07:25:53.444Z,989.92
2018-08-18T07:26:53.408Z,989.94
2018-08-18T07:27:53.385Z,989.95
2018-08-18T07:28:53.431Z,989.96
2018-08-18T07:29:53.318Z,989.94
2018-08-18T07:30:53.303Z,989.95
2018-08-18T07:31:53.244Z,989.92
2018-08-18T07:32:53.209Z,989.93
2018-08-18T07:33:53.171Z,989.93
2018-08-18T07:34:53.142Z,989.94
2018-08-18T07:35:53.115Z,989.91
2018-08-18T07:36:53.076Z,989.96
2018-08-18T07:37:53.045Z,989.90
2018-08-18T07:38:53.015Z,989.88
2018-08-18T07:39:52.982Z,989.87
2018-08-18T07:40:52.953Z,989.92
2018-08-18T07:41:52.909Z,989.88
2018-08-18T07:42:52.879Z,989.91
2018-08-18T07:43:52.847Z,989.92
2018-08-18T07:44:52.812Z,989.92
2018-08-18T07:45:52.785Z,989.90
2018-08-18T07:46:52.753Z,989.89
2018-08-18T07:47:52.717Z,989.90
2018-08-18T07:48:52.684Z,989.89
2018-08-18T07:49:52.660Z,989.92
2018-08-18T07:50:52.621Z,989.89
2018-08-18T07:51:52.589Z,989.91
2018-08-18T07:52:52.559Z,989.89
2018-08-18T07:53:52.521Z,989.90
2018-08-18T07:54:52.489Z,989.90
2018-08-18T07:55:52.457Z,989.92
2018-08-18T07:56:52.424Z,989.89
2018-08-18T07:57:52.396Z,989.86
2018-08-18T07:58:52.365Z,989.85
2018-08-18T07:59:52.373Z,989.93
2018-08-18T08:00:52.299Z,989.90
2018-08-18T08:01:52.263Z,989.91
2018-08-18T08:02:52.237Z,989.92
2018-08-18T08:03:52.201Z,989.94
2018-08-18T08:04:52.175Z,989.99
2018-08-18T08:05:52.204Z,990.00
2018-08-18T08:06:52.104Z,989.95
2018-08-18T08:07:52.072Z,989.94
2018-08-18T08:08:52.038Z,989.99
2018-08-18T08:09:52.011Z,990.00
2018-08-18T08:10:51.978Z,990.03
2018-08-18T08:11:51.946Z,990.06
2018-08-18T08:12:51.937Z,990.08
2018-08-18T08:13:51.887Z,990.07
2018-08-18T08:14:51.848Z,990.10
2018-08-18T08:15:51.816Z,990.07
2018-08-18T08:16:51.781Z,990.08
2018-08-18T08:17:51.756Z,990.05
2018-08-18T08:18:51.722Z,990.05
2018-08-18T08:19:51.705Z,990.06
2018-08-18T08:20:51.662Z,990.06
2018-08-18T08:21:51.635Z,990.08
2018-08-18T08:22:51.600Z,990.09
2018-08-18T08:23:51.565Z,990.09
2018-08-18T08:24:51.533Z,990.11
2018-08-18T08:25:51.500Z,990.15
2018-08-18T08:26:51.465Z,990.16
2018-08-18T08:27:51.438Z,990.21
2018-08-18T08:28:51.401Z,990.15
2018-08-18T08:29:51.408Z,990.16
2018-08-18T08:30:51.343Z,990.16
2018-08-18T08:31:51.311Z,990.18
2018-08-18T08:32:51.283Z,990.15
2018-08-18T08:33:51.250Z,990.14
2018-08-18T08:34:51.213Z,990.18
2018-08-18T08:35:51.185Z,990.20
2018-08-18T08:36:51.240Z,990.20
2018-08-18T08:37:51.125Z,990.20
2018-08-18T08:38:51.086Z,990.20
2018-08-18T08:39:51.056Z,990.23
2018-08-18T08:40:51.022Z,990.24
2018-08-18T08:41:51.005Z,990.21
2018-08-18T08:42:50.973Z,990.21
2018-08-18T08:43:50.933Z,990.18
2018-08-18T08:44:50.905Z,990.20
2018-08-18T08:45:50.864Z,990.21
2018-08-18T08:46:50.835Z,990.25
2018-08-18T08:47:50.811Z,990.27
2018-08-18T08:48:50.772Z,990.26
2018-08-18T08:49:50.750Z,990.26
2018-08-18T08:50:50.711Z,990.24
2018-08-18T08:51:50.677Z,990.23
2018-08-18T08:52:50.646Z,990.23
2018-08-18T08:53:50.620Z,990.20
2018-08-18T08:54:50.586Z,990.22
2018-08-18T08:55:50.563Z,990.14
2018-08-18T08:56:50.540Z,990.15
2018-08-18T08:57:50.604Z,990.12
2018-08-18T08:58:50.525Z,990.10
2018-08-18T08:59:50.427Z,990.14
2018-08-18T09:00:50.399Z,990.08
2018-08-18T09:01:50.373Z,990.09
2018-08-18T09:02:50.342Z,990.13
2018-08-18T09:03:50.309Z,990.09
2018-08-18T09:04:50.276Z,990.07
2018-08-18T09:05:50.238Z,990.06
2018-08-18T09:06:50.235Z,990.11
2018-08-18T09:07:50.181Z,990.12
2018-08-18T09:08:50.152Z,990.09
2018-08-18T09:09:50.114Z,990.11
2018-08-18T09:10:50.084Z,990.09
2018-08-18T09:11:50.054Z,990.09
2018-08-18T09:12:50.023Z,990.07
2018-08-18T09:13:49.999Z,990.03
2018-08-18T09:14:49.960Z,990.06
2018-08-18T09:15:49.929Z,990.06
2018-08-18T09:16:49.908Z,990.02
2018-08-18T09:17:49.863Z,990.00
2018-08-18T09:18:49.834Z,989.97
2018-08-18T09:19:49.805Z,990.01
2018-08-18T09:20:49.774Z,989.96
2018-08-18T09:21:49.749Z,989.98
2018-08-18T09:22:49.712Z,989.97
2018-08-18T09:23:49.678Z,989.99
2018-08-18T09:24:49.644Z,990.01
2018-08-18T09:25:49.630Z,989.99
2018-08-18T09:26:49.588Z,990.01
2018-08-18T09:27:49.556Z,990.01
2018-08-18T09:28:49.527Z,989.98
2018-08-18T09:29:49.512Z,989.99
2018-08-18T09:30:49.462Z,989.96
2018-08-18T09:31:49.431Z,989.93
2018-08-18T09:32:49.401Z,989.96
2018-08-18T09:33:49.377Z,989.96
2018-08-18T09:34:49.364Z,989.93
2018-08-18T09:35:49.311Z,989.99
2018-08-18T09:36:49.282Z,989.98
2018-08-18T09:37:49.251Z,989.99
2018-08-18T09:38:49.213Z,990.00
2018-08-18T09:39:49.185Z,990.01
2018-08-18T09:40:49.157Z,990.03
2018-08-18T09:41:49.122Z,989.98
2018-08-18T09:42:49.090Z,990.00
2018-08-18T09:43:49.068Z,989.99
2018-08-18T09:44:49.027Z,990.03
2018-08-18T09:45:49.002Z,989.98
2018-08-18T09:46:48.970Z,989.92
2018-08-18T09:47:48.943Z,989.94
2018-08-18T09:48:48.913Z,989.95
2018-08-18T09:49:48.882Z,989.98
2018-08-18T09:50:48.845Z,989.97
2018-08-18T09:51:48.814Z,989.95
2018-08-18T09:52:48.783Z,989.94
2018-08-18T09:53:48.756Z,989.96
2018-08-18T09:54:48.725Z,989.98
2018-08-18T09:55:48.694Z,989.96
2018-08-18T09:56:48.660Z,989.96
2018-08-18T09:57:48.634Z,989.98
2018-08-18T09:58:48.607Z,989.94
2018-08-18T09:59:48.578Z,989.99
2018-08-18T10:00:48.543Z,989.96
2018-08-18T10:01:48.517Z,989.91
2018-08-18T10:02:48.476Z,989.97
2018-08-18T10:03:48.445Z,989.98
2018-08-18T10:04:48.420Z,989.95
2018-08-18T10:05:48.390Z,989.94
2018-08-18T10:06:48.359Z,989.93
2018-08-18T10:21:07.858Z,989.79
2018-08-18T10:22:07.780Z,989.79
2018-08-18T10:23:07.739Z,989.80
2018-08-18T10:24:07.702Z,989.79
2018-08-18T10:25:07.668Z,989.79
2018-08-18T10:26:07.636Z,989.79
2018-08-18T10:27:07.655Z,989.79
2018-08-18T10:28:07.573Z,989.77
2018-08-18T10:29:07.540Z,989.79
2018-08-18T10:30:07.506Z,989.77
2018-08-18T10:31:07.473Z,989.76
2018-08-18T10:32:07.437Z,989.73
2018-08-18T10:33:07.411Z,989.74
2018-08-18T10:34:07.378Z,989.76
2018-08-18T10:35:07.347Z,989.75
2018-08-18T10:36:07.317Z,989.76
2018-08-18T10:37:07.280Z,989.79
2018-08-18T10:38:07.255Z,989.79
2018-08-18T10:39:07.228Z,989.80
2018-08-18T10:40:08.027Z,989.82
2018-08-18T10:41:07.163Z,989.83
2018-08-18T10:42:07.217Z,989.84
2018-08-18T10:43:07.101Z,989.85
2018-08-18T10:44:07.065Z,989.85
2018-08-18T10:45:07.033Z,989.83
2018-08-18T10:46:07.004Z,989.84
2018-08-18T10:47:06.979Z,989.81
2018-08-18T10:48:06.969Z,989.82
2018-08-18T10:49:06.916Z,989.78
2018-08-18T10:50:06.884Z,989.79
2018-08-18T10:51:06.863Z,989.84
2018-08-18T10:52:06.824Z,989.81
2018-08-18T10:53:06.795Z,989.81
2018-08-18T10:54:06.764Z,989.79
2018-08-18T10:55:06.730Z,989.81
2018-08-18T10:56:06.699Z,989.78
2018-08-18T10:57:06.668Z,989.76
2018-08-18T10:58:06.638Z,989.78
2018-08-18T10:59:06.611Z,989.73
2018-08-18T11:00:06.583Z,989.71
2018-08-18T11:01:06.555Z,989.74
2018-08-18T11:02:06.524Z,989.79
2018-08-18T11:03:06.497Z,989.81
2018-08-18T11:04:06.460Z,989.78
2018-08-18T11:05:06.428Z,989.80
2018-08-18T11:06:06.400Z,989.77
2018-08-18T11:07:06.371Z,989.78
2018-08-18T11:08:06.343Z,989.77
2018-08-18T11:09:06.306Z,989.70
2018-08-18T11:10:06.278Z,989.78
2018-08-18T11:11:06.256Z,989.72
2018-08-18T11:12:06.224Z,989.70
2018-08-18T11:13:06.194Z,989.74
2018-08-18T11:14:06.164Z,989.70
2018-08-18T11:15:06.129Z,989.72
2018-08-18T11:16:06.098Z,989.77
2018-08-18T11:17:06.067Z,989.73
2018-08-18T11:18:06.039Z,989.76
2018-08-18T11:19:06.015Z,989.73
2018-08-18T11:20:05.988Z,989.71
2018-08-18T11:21:05.954Z,989.67
2018-08-18T11:22:05.924Z,989.65
2018-08-18T11:23:05.915Z,989.64
2018-08-18T11:24:05.863Z,989.61
2018-08-18T11:25:05.835Z,989.67
2018-08-18T11:26:05.804Z,989.70
2018-08-18T11:27:05.774Z,989.67
2018-08-18T11:28:05.741Z,989.68
2018-08-18T11:29:05.711Z,989.70
2018-08-18T11:30:05.683Z,989.67
2018-08-18T11:31:05.657Z,989.67
2018-08-18T11:32:05.627Z,989.66
2018-08-18T11:33:05.598Z,989.68
2018-08-18T11:34:05.567Z,989.68
2018-08-18T11:35:05.597Z,989.68
2018-08-18T11:36:05.512Z,989.68
2018-08-18T11:37:05.474Z,989.64
2018-08-18T11:38:05.453Z,989.65
2018-08-18T11:39:05.420Z,989.65
2018-08-18T11:40:05.392Z,989.66
2018-08-18T11:41:05.355Z,989.67
2018-08-18T11:42:05.333Z,989.66
2018-08-18T11:43:05.301Z,989.66
2018-08-18T11:44:05.280Z,989.63
2018-08-18T11:45:05.243Z,989.60
2018-08-18T11:46:05.212Z,989.58
2018-08-18T11:47:05.250Z,989.57
2018-08-18T11:48:05.150Z,989.56
2018-08-18T11:49:05.121Z,989.55
2018-08-18T11:50:05.091Z,989.58
2018-08-18T11:51:05.068Z,989.57
2018-08-18T11:52:05.042Z,989.55
2018-08-18T11:53:05.007Z,989.56
2018-08-18T11:54:04.978Z,989.51
2018-08-18T11:55:04.944Z,989.53
2018-08-18T11:56:04.916Z,989.51
2018-08-18T11:57:04.888Z,989.48
2018-08-18T11:58:04.861Z,989.49
2018-08-18T11:59:04.837Z,989.50
2018-08-18T12:00:04.806Z,989.46
2018-08-18T12:01:04.814Z,989.44
2018-08-18T12:02:04.793Z,989.48
2018-08-18T12:03:04.714Z,989.48
2018-08-18T12:04:04.684Z,989.48
2018-08-18T12:05:04.654Z,989.50
2018-08-18T12:06:04.631Z,989.46
2018-08-18T12:07:04.595Z,989.46
2018-08-18T12:08:04.565Z,989.45
2018-08-18T12:09:04.535Z,989.43
2018-08-18T12:10:04.504Z,989.46
2018-08-18T12:11:04.516Z,989.43
2018-08-18T12:12:04.450Z,989.40
2018-08-18T12:13:04.418Z,989.40
2018-08-18T12:14:04.391Z,989.40
2018-08-18T12:15:04.367Z,989.41
2018-08-18T12:16:04.335Z,989.40
2018-08-18T12:17:04.304Z,989.39
2018-08-18T12:18:04.276Z,989.38
2018-08-18T12:19:04.243Z,989.41
2018-08-18T12:20:04.213Z,989.31
2018-08-18T12:21:04.186Z,989.42
2018-08-18T12:22:04.156Z,989.35
2018-08-18T12:23:04.130Z,989.36
2018-08-18T12:24:04.099Z,989.34
2018-08-18T12:25:04.069Z,989.33
2018-08-18T12:26:04.042Z,989.32
2018-08-18T12:27:04.013Z,989.30
2018-08-18T12:28:03.987Z,989.29
2018-08-18T12:29:03.977Z,989.32
2018-08-18T12:30:03.945Z,989.31
2018-08-18T12:31:03.892Z,989.27
2018-08-18T12:32:03.867Z,989.29
2018-08-18T12:33:03.835Z,989.25
2018-08-18T12:34:03.803Z,989.31
2018-08-18T12:35:03.782Z,989.32
2018-08-18T12:36:03.750Z,989.36
2018-08-18T12:37:03.826Z,989.34
2018-08-18T12:38:03.695Z,989.29
2018-08-18T12:39:03.660Z,989.26
2018-08-18T12:40:03.646Z,989.24
2018-08-18T12:41:03.642Z,989.27
2018-08-18T12:42:03.576Z,989.27
2018-08-18T12:43:03.548Z,989.26
2018-08-18T12:44:03.517Z,989.27
2018-08-18T12:45:03.485Z,989.26
2018-08-18T12:46:03.458Z,989.26
2018-08-18T12:47:03.432Z,989.23
2018-08-18T12:48:03.406Z,989.29
2018-08-18T12:49:03.372Z,989.29
2018-08-18T12:50:03.382Z,989.24
2018-08-18T12:51:03.310Z,989.23
2018-08-18T12:52:03.283Z,989.24
2018-08-18T12:53:03.253Z,989.24